createdAt,value
2023-01-20T00:01:23.757Z,85.00
2023-01-20T00:03:52.278Z,84.80
2023-01-20T00:06:19.413Z,84.90
2023-01-20T00:08:50.779Z,85.10
2023-01-20T00:11:18.083Z,85.40
2023-01-20T00:13:44.818Z,85.70
2023-01-20T00:16:12.202Z,85.90
2023-01-20T00:18:40.395Z,86.10
2023-01-20T00:21:10.122Z,86.90
2023-01-20T00:23:37.231Z,86.60
2023-01-20T00:26:05.875Z,86.50
2023-01-20T00:28:33.741Z,86.50
2023-01-20T00:31:12.739Z,86.90
2023-01-20T00:33:40.000Z,87.00
2023-01-20T00:36:07.591Z,86.90
2023-01-20T00:38:34.732Z,86.80
2023-01-20T00:41:01.571Z,87.00
2023-01-20T00:43:28.386Z,86.80
2023-01-20T00:45:55.085Z,86.80
2023-01-20T00:48:21.971Z,86.40
2023-01-20T00:50:48.941Z,86.00
2023-01-20T00:53:15.701Z,85.90
2023-01-20T00:55:42.513Z,86.00
2023-01-20T00:58:09.533Z,86.00
2023-01-20T01:00:36.976Z,85.90
2023-01-20T01:03:05.365Z,85.60
2023-01-20T01:05:33.061Z,85.60
2023-01-20T01:07:59.866Z,86.40
2023-01-20T01:10:26.650Z,86.40
2023-01-20T01:12:53.608Z,86.30
2023-01-20T01:15:20.573Z,86.90
2023-01-20T01:17:47.315Z,87.20
2023-01-20T01:20:14.705Z,87.00
2023-01-20T01:22:41.471Z,86.90
2023-01-20T01:25:08.329Z,87.00
2023-01-20T01:27:35.253Z,87.20
2023-01-20T01:30:02.150Z,87.10
2023-01-20T01:32:29.450Z,87.10
2023-01-20T01:34:56.173Z,86.70
2023-01-20T01:37:23.240Z,86.80
2023-01-20T01:39:50.125Z,86.90
2023-01-20T01:42:19.719Z,86.90
2023-01-20T01:45:12.286Z,86.90
2023-01-20T01:47:48.434Z,86.80
2023-01-20T01:50:20.055Z,86.70
2023-01-20T01:52:50.847Z,86.90
2023-01-20T01:55:20.867Z,87.00
2023-01-20T01:57:48.602Z,87.00
2023-01-20T02:00:15.649Z,87.10
2023-01-20T02:02:44.373Z,87.30
2023-01-20T02:05:13.435Z,87.40
2023-01-20T02:07:42.217Z,87.40
2023-01-20T02:10:09.569Z,88.00
2023-01-20T02:12:36.448Z,88.10
2023-01-20T02:15:04.555Z,88.10
2023-01-20T02:17:41.465Z,88.20
2023-01-20T02:20:43.589Z,88.20
2023-01-20T02:23:43.014Z,88.20
2023-01-20T02:26:21.651Z,88.10
2023-01-20T02:29:07.231Z,88.20
2023-01-20T02:32:07.998Z,89.10
2023-01-20T02:34:49.510Z,89.30
2023-01-20T02:37:21.995Z,89.40
2023-01-20T02:39:56.346Z,89.40
2023-01-20T02:42:29.008Z,89.30
2023-01-20T02:45:16.625Z,89.20
2023-01-20T02:47:57.263Z,89.30
2023-01-20T02:50:45.462Z,89.20
2023-01-20T02:53:15.639Z,89.10
2023-01-20T02:55:47.982Z,88.90
2023-01-20T02:58:23.691Z,88.80
2023-01-20T03:00:59.417Z,88.80
2023-01-20T03:03:33.263Z,88.70
2023-01-20T03:06:03.821Z,88.90
2023-01-20T03:08:32.736Z,88.60
2023-01-20T03:11:09.661Z,88.50
2023-01-20T03:13:58.019Z,88.70
2023-01-20T03:16:26.477Z,88.60
2023-01-20T03:18:55.221Z,88.50
2023-01-20T03:21:22.875Z,88.70
2023-01-20T03:23:53.042Z,89.10
2023-01-20T03:26:22.524Z,89.20
2023-01-20T03:28:49.791Z,89.50
2023-01-20T03:31:22.821Z,89.30
2023-01-20T03:33:53.317Z,89.50
2023-01-20T03:36:23.182Z,89.70
2023-01-20T03:38:51.216Z,89.80
2023-01-20T03:41:27.024Z,89.90
2023-01-20T03:44:09.391Z,89.90
2023-01-20T03:46:52.194Z,89.90
2023-01-20T03:49:38.258Z,89.80
2023-01-20T03:52:10.673Z,89.90
2023-01-20T03:54:47.391Z,90.10
2023-01-20T03:57:19.933Z,89.90
2023-01-20T03:59:50.156Z,90.00
2023-01-20T04:02:17.035Z,89.90
2023-01-20T04:04:45.269Z,90.20
2023-01-20T04:07:18.503Z,90.00
2023-01-20T04:09:47.528Z,89.30
2023-01-20T04:12:14.438Z,89.20
2023-01-20T04:14:41.220Z,89.00
2023-01-20T04:17:08.185Z,89.10
2023-01-20T04:19:35.069Z,89.10
2023-01-20T04:22:17.690Z,89.30
2023-01-20T04:25:17.439Z,89.30
2023-01-20T04:27:44.179Z,89.30
2023-01-20T04:30:12.649Z,89.40
2023-01-20T04:32:39.368Z,89.40
2023-01-20T04:35:06.568Z,89.10
2023-01-20T04:37:33.327Z,89.20
2023-01-20T04:40:00.097Z,89.10
2023-01-20T04:42:26.926Z,89.30
2023-01-20T04:44:53.682Z,89.60
2023-01-20T04:47:20.446Z,89.70
2023-01-20T04:49:47.187Z,89.40
2023-01-20T04:52:14.065Z,89.50
2023-01-20T04:54:40.796Z,89.60
2023-01-20T04:57:07.654Z,89.70
2023-01-20T04:59:34.406Z,89.70
2023-01-20T05:02:01.257Z,89.60
2023-01-20T05:04:28.079Z,89.70
2023-01-20T05:06:54.794Z,89.70
2023-01-20T05:09:21.579Z,89.40
2023-01-20T05:11:48.872Z,89.20
2023-01-20T05:14:15.609Z,89.50
2023-01-20T05:16:42.835Z,89.20
2023-01-20T05:19:12.033Z,89.40
2023-01-20T05:21:38.909Z,89.30
2023-01-20T05:24:06.291Z,89.30
2023-01-20T05:26:33.170Z,89.40
2023-01-20T05:29:00.183Z,89.40
2023-01-20T05:31:27.075Z,89.60
2023-01-20T05:33:54.299Z,89.50
2023-01-20T05:36:21.040Z,89.40
2023-01-20T05:38:47.801Z,89.00
2023-01-20T05:41:14.712Z,88.70
2023-01-20T05:43:41.461Z,88.80
2023-01-20T05:46:08.282Z,88.90
2023-01-20T05:48:35.087Z,88.80
2023-01-20T05:51:01.931Z,88.60
2023-01-20T05:53:28.745Z,88.30
2023-01-20T05:56:03.423Z,88.30
2023-01-20T05:58:30.751Z,88.40
2023-01-20T06:01:11.017Z,88.40
2023-01-20T06:03:38.770Z,88.30
2023-01-20T06:06:08.120Z,88.20
2023-01-20T06:08:35.738Z,88.20
2023-01-20T06:11:02.813Z,88.10
2023-01-20T06:13:29.559Z,88.20
2023-01-20T06:15:56.731Z,88.50
2023-01-20T06:18:24.058Z,88.40
2023-01-20T06:20:50.888Z,88.60
2023-01-20T06:23:18.351Z,88.30
2023-01-20T06:25:45.122Z,88.40
2023-01-20T06:28:11.856Z,88.50
2023-01-20T06:30:38.602Z,88.60
2023-01-20T06:33:10.455Z,88.70
2023-01-20T06:35:37.915Z,88.60
2023-01-20T06:38:04.741Z,88.70
2023-01-20T06:40:31.810Z,88.90
2023-01-20T06:42:59.270Z,89.10
2023-01-20T06:45:26.026Z,89.10
2023-01-20T06:47:52.743Z,89.10
2023-01-20T06:50:19.489Z,89.10
2023-01-20T06:52:46.240Z,89.30
2023-01-20T06:55:13.412Z,89.40
2023-01-20T06:57:40.336Z,89.40
2023-01-20T07:00:08.002Z,89.60
2023-01-20T07:02:34.776Z,89.60
2023-01-20T07:05:02.429Z,89.60
2023-01-20T07:07:29.645Z,89.70
2023-01-20T07:09:56.356Z,89.40
2023-01-20T07:12:23.172Z,89.80
2023-01-20T07:14:49.951Z,89.80
2023-01-20T07:17:16.707Z,89.70
2023-01-20T07:19:43.435Z,89.50
2023-01-20T07:22:10.231Z,89.10
2023-01-20T07:24:36.990Z,89.10
2023-01-20T07:27:03.823Z,89.20
2023-01-20T07:29:30.568Z,89.20
2023-01-20T07:31:57.372Z,89.30
2023-01-20T07:34:24.228Z,89.30
2023-01-20T07:36:53.237Z,89.20
2023-01-20T07:39:20.251Z,89.20
2023-01-20T07:41:48.865Z,89.40
2023-01-20T07:44:16.107Z,89.30
2023-01-20T07:46:42.962Z,89.50
2023-01-20T07:49:12.466Z,90.00
2023-01-20T07:51:39.855Z,90.00
2023-01-20T07:54:06.856Z,90.00
2023-01-20T07:56:33.623Z,89.80
2023-01-20T07:59:00.364Z,89.40
2023-01-20T08:01:29.810Z,89.50
2023-01-20T08:03:57.918Z,89.50
2023-01-20T08:06:26.023Z,89.90
2023-01-20T08:08:56.149Z,89.80
2023-01-20T08:11:23.824Z,89.70
2023-01-20T08:13:50.814Z,89.70
2023-01-20T08:16:18.465Z,89.50
2023-01-20T08:18:46.035Z,89.60
2023-01-20T08:21:28.398Z,89.40
2023-01-20T08:23:56.455Z,89.40
2023-01-20T08:26:27.767Z,89.90
2023-01-20T08:28:55.733Z,89.80
2023-01-20T08:31:24.664Z,89.50
2023-01-20T08:33:55.510Z,89.40
2023-01-20T08:36:27.846Z,89.40
2023-01-20T08:38:56.347Z,89.20
2023-01-20T08:41:31.913Z,89.10
2023-01-20T08:44:00.577Z,89.10
2023-01-20T08:46:28.088Z,89.30
2023-01-20T08:48:56.080Z,89.50
2023-01-20T08:51:29.131Z,89.50
2023-01-20T08:53:56.074Z,89.60
2023-01-20T08:56:23.210Z,89.30
2023-01-20T08:58:50.165Z,89.60
2023-01-20T09:01:20.648Z,89.40
2023-01-20T09:04:04.183Z,89.20
2023-01-20T09:06:39.027Z,89.30
2023-01-20T09:09:06.278Z,89.00
2023-01-20T09:11:33.129Z,89.10
2023-01-20T09:14:00.845Z,89.20
2023-01-20T09:16:27.657Z,89.10
2023-01-20T09:18:54.556Z,89.30
2023-01-20T09:21:21.510Z,89.60
2023-01-20T09:23:48.625Z,89.50
2023-01-20T09:26:22.830Z,89.50
2023-01-20T09:29:21.574Z,89.70
2023-01-20T09:31:58.156Z,90.20
2023-01-20T09:34:27.344Z,90.50
2023-01-20T09:36:56.502Z,90.50
2023-01-20T09:39:41.961Z,90.50
2023-01-20T09:42:46.271Z,90.40
2023-01-20T09:45:29.516Z,90.70
2023-01-20T09:48:51.042Z,90.50
2023-01-20T09:51:45.135Z,90.10
2023-01-20T09:54:22.598Z,90.40
2023-01-20T09:56:54.723Z,90.40
2023-01-20T09:59:36.669Z,90.40
2023-01-20T10:02:08.696Z,90.10
2023-01-20T10:04:51.571Z,90.10
2023-01-20T10:07:55.599Z,89.90
2023-01-20T10:10:25.405Z,90.10
2023-01-20T10:13:10.878Z,89.60
2023-01-20T10:15:43.541Z,89.80
2023-01-20T10:18:22.428Z,90.10
2023-01-20T10:20:56.751Z,89.60
2023-01-20T10:23:45.250Z,89.80
2023-01-20T10:26:16.319Z,89.60
2023-01-20T10:28:49.860Z,89.60
2023-01-20T10:31:23.750Z,89.40
2023-01-20T10:33:53.730Z,89.20
2023-01-20T10:36:26.972Z,89.00
2023-01-20T10:39:04.225Z,88.70
2023-01-20T10:41:30.948Z,89.00
2023-01-20T10:43:59.866Z,89.00
2023-01-20T10:46:46.887Z,89.10
2023-01-20T10:49:30.150Z,89.20
2023-01-20T10:52:27.763Z,89.10
2023-01-20T10:55:00.630Z,89.40
2023-01-20T10:57:27.612Z,89.20
2023-01-20T10:59:59.724Z,90.00
2023-01-20T11:02:34.670Z,90.00
2023-01-20T11:05:09.863Z,89.90
2023-01-20T11:07:36.859Z,90.00
2023-01-20T11:10:27.619Z,90.10
2023-01-20T11:12:59.617Z,90.10
2023-01-20T11:15:36.635Z,89.60
2023-01-20T11:18:15.434Z,89.40
2023-01-20T11:20:48.123Z,89.50
2023-01-20T11:23:40.440Z,89.40
2023-01-20T11:26:28.295Z,88.90
2023-01-20T11:28:55.345Z,88.30
2023-01-20T11:31:52.334Z,88.40
2023-01-20T11:34:23.406Z,88.70
2023-01-20T11:37:10.887Z,88.90
2023-01-20T11:39:51.402Z,89.20
2023-01-20T11:42:20.549Z,88.90
2023-01-20T11:44:53.470Z,89.10
2023-01-20T11:47:25.709Z,88.40
2023-01-20T11:50:04.679Z,88.00
2023-01-20T11:52:33.057Z,88.30
2023-01-20T11:55:23.642Z,88.20
2023-01-20T11:58:02.787Z,88.10
2023-01-20T12:00:41.993Z,88.30
2023-01-20T12:03:33.499Z,87.90
2023-01-20T12:06:09.142Z,87.10
2023-01-20T12:09:00.576Z,86.60
2023-01-20T12:11:45.746Z,86.60
2023-01-20T12:14:34.090Z,86.70
2023-01-20T12:17:05.423Z,87.40
2023-01-20T12:19:40.827Z,87.10
2023-01-20T12:22:14.533Z,87.40
2023-01-20T12:25:08.114Z,87.20
2023-01-20T12:27:41.564Z,87.60
2023-01-20T12:30:36.901Z,87.90
2023-01-20T12:33:03.937Z,87.60
2023-01-20T12:35:39.347Z,88.40
2023-01-20T12:38:08.445Z,88.00
2023-01-20T12:40:42.815Z,88.00
2023-01-20T12:43:39.147Z,88.20
2023-01-20T12:46:28.527Z,88.40
2023-01-20T12:49:36.647Z,88.10
2023-01-20T12:52:25.524Z,88.80
2023-01-20T12:55:02.858Z,88.70
2023-01-20T12:57:56.904Z,88.10
2023-01-20T13:00:29.673Z,88.30
2023-01-20T13:03:21.104Z,88.40
2023-01-20T13:06:28.091Z,88.60
2023-01-20T13:09:22.291Z,88.30
2023-01-20T13:12:15.330Z,88.90
2023-01-20T13:14:49.295Z,88.80
2023-01-20T13:17:39.450Z,88.90
2023-01-20T13:20:19.511Z,88.90
2023-01-20T13:22:46.407Z,88.90
2023-01-20T13:25:17.491Z,89.10
2023-01-20T13:27:45.360Z,88.20
2023-01-20T13:30:37.226Z,88.40
2023-01-20T13:33:08.713Z,87.50
2023-01-20T13:35:48.298Z,87.50
2023-01-20T13:38:30.840Z,86.80
2023-01-20T13:41:03.217Z,86.90
2023-01-20T13:43:37.473Z,86.50
2023-01-20T13:46:07.390Z,86.50
2023-01-20T13:48:43.391Z,86.30
2023-01-20T13:51:15.898Z,86.40
2023-01-20T13:53:43.158Z,86.50
2023-01-20T13:56:29.498Z,85.90
2023-01-20T13:58:59.846Z,86.00
2023-01-20T14:01:27.952Z,85.80
2023-01-20T14:04:15.165Z,86.20
2023-01-20T14:06:46.558Z,86.40
2023-01-20T14:09:25.425Z,85.70
2023-01-20T14:11:57.563Z,84.80
2023-01-20T14:14:26.711Z,85.30
2023-01-20T14:16:55.635Z,85.70
2023-01-20T14:19:30.967Z,85.20
2023-01-20T14:22:01.667Z,85.70
2023-01-20T14:24:42.486Z,85.30
2023-01-20T14:27:23.234Z,85.90
2023-01-20T14:29:54.813Z,84.70
2023-01-20T14:32:35.280Z,85.40
2023-01-20T14:35:12.010Z,85.30
2023-01-20T14:37:40.119Z,85.10
2023-01-20T14:40:18.694Z,84.80
2023-01-20T14:42:56.463Z,85.10
2023-01-20T14:45:25.318Z,86.00
2023-01-20T14:47:52.733Z,86.30
2023-01-20T14:50:20.539Z,86.10
2023-01-20T14:52:47.437Z,86.40
2023-01-20T14:55:30.307Z,86.10
2023-01-20T14:58:00.737Z,86.10
2023-01-20T15:00:33.858Z,86.20
2023-01-20T15:03:24.845Z,86.50
2023-01-20T15:06:10.038Z,86.20
2023-01-20T15:08:37.333Z,86.30
2023-01-20T15:11:19.496Z,86.90
2023-01-20T15:13:54.309Z,87.40
2023-01-20T15:16:28.436Z,87.90
2023-01-20T15:19:13.408Z,88.00
2023-01-20T15:21:42.354Z,88.40
2023-01-20T15:24:21.257Z,88.80
2023-01-20T15:26:50.242Z,89.30
2023-01-20T15:29:39.587Z,90.10
2023-01-20T15:32:11.306Z,90.40
2023-01-20T15:34:38.283Z,90.40
2023-01-20T15:37:16.280Z,90.90
2023-01-20T15:39:42.983Z,91.20
2023-01-20T15:42:15.104Z,91.30
2023-01-20T15:44:41.824Z,91.30
2023-01-20T15:47:31.021Z,91.40
2023-01-20T15:49:58.385Z,91.30
2023-01-20T15:52:25.331Z,91.50
2023-01-20T15:54:52.081Z,91.30
2023-01-20T15:57:20.444Z,91.40
2023-01-20T15:59:49.573Z,91.60
2023-01-20T16:02:19.304Z,91.70
2023-01-20T16:04:46.911Z,91.80
2023-01-20T16:07:19.042Z,91.70
2023-01-20T16:09:46.791Z,91.70
2023-01-20T16:12:15.220Z,91.50
2023-01-20T16:14:42.095Z,91.60
2023-01-20T16:17:16.985Z,91.70
2023-01-20T16:19:44.090Z,91.60
2023-01-20T16:22:11.052Z,91.50
2023-01-20T16:24:38.184Z,91.40
2023-01-20T16:27:18.472Z,91.40
2023-01-20T16:29:45.459Z,91.50
2023-01-20T16:32:13.425Z,91.50
2023-01-20T16:34:42.555Z,91.40
2023-01-20T16:37:15.235Z,91.20
2023-01-20T16:39:42.101Z,91.00
2023-01-20T16:42:13.969Z,91.20
2023-01-20T16:44:41.329Z,91.30
2023-01-20T16:47:08.581Z,91.30
2023-01-20T16:49:39.630Z,91.20
2023-01-20T16:52:06.621Z,90.90
2023-01-20T16:54:38.571Z,90.80
2023-01-20T16:57:07.302Z,90.80
2023-01-20T16:59:35.428Z,90.80
2023-01-20T17:02:02.825Z,90.50
2023-01-20T17:04:33.900Z,90.40
2023-01-20T17:07:02.305Z,90.30
2023-01-20T17:09:29.968Z,90.30
2023-01-20T17:12:00.179Z,90.20
2023-01-20T17:14:27.810Z,90.10
2023-01-20T17:16:58.644Z,90.10
2023-01-20T17:19:26.879Z,90.20
2023-01-20T17:21:54.626Z,90.30
2023-01-20T17:24:21.995Z,90.60
2023-01-20T17:26:49.178Z,90.70
2023-01-20T17:29:21.896Z,90.80
2023-01-20T17:31:52.657Z,90.80
2023-01-20T17:34:19.925Z,90.60
2023-01-20T17:36:49.133Z,90.70
2023-01-20T17:39:16.611Z,90.70
2023-01-20T17:41:44.872Z,91.00
2023-01-20T17:44:13.341Z,90.80
2023-01-20T17:46:40.284Z,90.90
2023-01-20T17:49:11.883Z,90.90
2023-01-20T17:54:20.231Z,90.60
2023-01-20T17:56:47.998Z,90.60
2023-01-20T17:59:17.305Z,90.60
2023-01-20T18:01:52.445Z,90.60
2023-01-20T18:04:19.974Z,90.50
2023-01-20T18:06:46.933Z,90.50
2023-01-20T18:09:14.363Z,90.60
2023-01-20T18:11:43.419Z,90.70
2023-01-20T18:14:10.223Z,90.60
2023-01-20T18:16:39.272Z,90.30
2023-01-20T18:19:06.201Z,90.50
2023-01-20T18:21:36.847Z,90.30
2023-01-20T18:24:05.861Z,90.40
2023-01-20T18:26:34.545Z,90.40
2023-01-20T18:29:04.274Z,90.40
2023-01-20T18:31:32.245Z,90.50
2023-01-20T18:34:01.376Z,90.60
2023-01-20T18:36:29.732Z,90.60
2023-01-20T18:38:59.152Z,90.40
2023-01-20T18:41:28.138Z,90.60
2023-01-20T18:43:55.478Z,90.40
2023-01-20T18:46:23.244Z,90.30
2023-01-20T18:48:52.830Z,90.50
2023-01-20T18:51:21.078Z,90.40
2023-01-20T18:53:57.713Z,90.50
2023-01-20T18:56:26.131Z,90.40
2023-01-20T18:58:54.092Z,90.40
2023-01-20T19:01:27.796Z,90.40
2023-01-20T19:03:55.048Z,90.30
2023-01-20T19:06:24.010Z,90.40
2023-01-20T19:08:51.074Z,90.60
2023-01-20T19:11:26.144Z,90.60
2023-01-20T19:13:53.480Z,90.60
2023-01-20T19:16:23.212Z,90.70
2023-01-20T19:18:52.804Z,90.80
2023-01-20T19:21:20.562Z,90.80
2023-01-20T19:23:52.409Z,91.00
2023-01-20T19:26:20.451Z,91.10
2023-01-20T19:28:49.470Z,91.30
2023-01-20T19:31:18.448Z,91.10
2023-01-20T19:33:46.587Z,90.90
2023-01-20T19:36:15.747Z,90.80
2023-01-20T19:38:43.152Z,90.80
2023-01-20T19:41:15.752Z,90.80
2023-01-20T19:43:43.605Z,90.90
2023-01-20T19:46:14.855Z,91.00
2023-01-20T19:48:41.976Z,90.80
2023-01-20T19:51:16.008Z,91.00
2023-01-20T19:53:43.687Z,90.90
2023-01-20T19:56:13.432Z,90.90
2023-01-20T19:58:41.702Z,90.80
2023-01-20T20:01:15.181Z,90.80
2023-01-20T20:03:42.411Z,90.70
2023-01-20T20:06:31.202Z,90.70
2023-01-20T20:09:00.670Z,90.70
2023-01-20T20:11:28.788Z,90.80
2023-01-20T20:13:57.542Z,90.70
2023-01-20T20:16:26.518Z,90.80
2023-01-20T20:18:54.369Z,90.80
2023-01-20T20:21:21.573Z,90.70
2023-01-20T20:23:57.391Z,90.70
2023-01-20T20:26:26.716Z,90.80
2023-01-20T20:28:53.981Z,91.00
2023-01-20T20:31:22.203Z,90.90
2023-01-20T20:33:49.319Z,90.80
2023-01-20T20:36:16.157Z,90.80
2023-01-20T20:38:47.679Z,90.70
2023-01-20T20:41:16.789Z,90.90
2023-01-20T20:43:43.780Z,91.00
2023-01-20T20:46:16.030Z,91.00
2023-01-20T20:48:43.210Z,91.10
2023-01-20T20:51:15.228Z,91.20
2023-01-20T20:53:42.775Z,91.20
2023-01-20T20:56:14.373Z,91.20
2023-01-20T20:58:59.525Z,91.20
2023-01-20T21:01:29.308Z,91.10
2023-01-20T21:03:57.649Z,91.10
2023-01-20T21:06:25.268Z,91.20
2023-01-20T21:08:52.992Z,91.10
2023-01-20T21:11:23.964Z,91.10
2023-01-20T21:13:51.006Z,91.00
2023-01-20T21:16:21.934Z,91.00
2023-01-20T21:18:49.753Z,91.20
2023-01-20T21:21:19.954Z,91.20
2023-01-20T21:23:51.388Z,91.20
2023-01-20T21:26:19.132Z,90.90
2023-01-20T21:28:49.004Z,90.80
2023-01-20T21:31:19.025Z,90.70
2023-01-20T21:33:46.552Z,90.80
2023-01-20T21:36:13.418Z,91.10
2023-01-20T21:38:46.248Z,91.20
2023-01-20T21:41:14.597Z,91.40
2023-01-20T21:44:01.844Z,91.60
2023-01-20T21:46:31.828Z,91.40
2023-01-20T21:49:27.768Z,91.40
2023-01-20T21:52:13.920Z,91.40
2023-01-20T21:54:41.371Z,91.50
2023-01-20T21:57:08.993Z,91.40
2023-01-20T21:59:36.045Z,91.30
2023-01-20T22:02:02.862Z,91.50
2023-01-20T22:04:29.709Z,91.50
2023-01-20T22:06:56.415Z,91.60
2023-01-20T22:09:23.354Z,91.70
2023-01-20T22:11:50.302Z,91.60
2023-01-20T22:14:17.286Z,91.50
2023-01-20T22:16:44.096Z,91.60
2023-01-20T22:19:14.606Z,91.60
2023-01-20T22:21:41.949Z,91.70
2023-01-20T22:24:09.612Z,91.30
2023-01-20T22:26:36.403Z,91.40
2023-01-20T22:29:03.175Z,91.50
2023-01-20T22:31:31.746Z,91.50
2023-01-20T22:33:59.193Z,91.30
2023-01-20T22:36:26.029Z,91.30
2023-01-20T22:38:53.563Z,91.70
2023-01-20T22:41:20.741Z,91.90
2023-01-20T22:43:48.188Z,91.90
2023-01-20T22:46:17.140Z,91.80
2023-01-20T22:48:44.709Z,91.70
2023-01-20T22:51:13.982Z,91.80
2023-01-20T22:53:41.152Z,91.70
2023-01-20T22:56:12.356Z,91.60
2023-01-20T22:58:39.551Z,91.50
2023-01-20T23:01:12.520Z,91.60
2023-01-20T23:03:39.389Z,91.60
2023-01-20T23:06:06.334Z,91.60
2023-01-20T23:08:33.227Z,91.60
2023-01-20T23:11:09.510Z,91.80
2023-01-20T23:13:36.596Z,91.70
2023-01-20T23:16:04.753Z,91.60
2023-01-20T23:18:32.232Z,91.70
2023-01-20T23:20:59.879Z,91.50
2023-01-20T23:23:27.069Z,91.40
2023-01-20T23:26:09.630Z,91.20
2023-01-20T23:28:36.463Z,91.20
2023-01-20T23:31:08.210Z,91.10
2023-01-20T23:33:35.100Z,91.10
2023-01-20T23:36:16.378Z,91.20
2023-01-20T23:38:45.937Z,91.30
2023-01-20T23:41:13.842Z,91.20
2023-01-20T23:43:41.444Z,91.10
2023-01-20T23:46:09.440Z,90.80
2023-01-20T23:48:36.670Z,90.60
2023-01-20T23:51:04.760Z,90.30
2023-01-20T23:53:32.734Z,90.10
2023-01-20T23:56:04.762Z,90.20
2023-01-20T23:58:31.881Z,90.30
